Terminal Aerodrome Forecast
Issued by NWS

Home | Current Version | Previous Version | Text Only | Print | Product List | Glossary On
Versions: 1 2 3 4 5 6 7 8 9 10 11 12 13 14 15 16 17 18 19 20 21 22
000
FTUS41 KOKX 010800 AAA
TAFHPN
TAF AMD
KHPN 010832Z 0109/0206 28006KT P6SM BKN250
     FM011500 29008KT P6SM SCT050 BKN090
     FM012100 VRB04KT P6SM FEW035 OVC060
     FM020200 10006KT 2SM -SN OVC015
     FM020400 09010KT 1SM -SN BR OVC008
      AMD NOT SKED=

USA.gov is the U.S. government's official web portal to all federal, state and local government web resources and services.